Flight Track Log - Related Links

Times and Time Zones

All times are in EDT time to prevent confusion due to time zone crossing. See the KAL61 flight status page for this flight to view local times or setup timezone preferences in your user account.

Time Position Orientation Groundspeed Altitude Reporting Facility
EDT Latitude Longitude Course Direction KTS MPH feet Rate Location/Type
Mon 10:12:49 PM 33.9333 -118.4333 268° West 205 236 1,000  Level Southern California TRACON
Mon 10:13:18 PM 33.9325 -118.4653 268° West 219 252 2,200 1,689 Climbing Los Angeles Center
Mon 10:14:32 PM 33.8975 -118.5267 236° Southwest 210 242 3,900 1,827 Climbing Los Angeles Center
Mon 10:16:35 PM 33.7769 -118.5789 200° South 276 318 8,200 2,122 Climbing Los Angeles Center
Mon 10:18:38 PM 33.6747 -118.4092 126° Southeast 337 388 12,600 2,108 Climbing Los Angeles Center
Mon 10:19:40 PM 33.6578 -118.2922 100° East 368 423 14,700 1,645 Climbing Los Angeles Center
Mon 10:20:42 PM 33.6308 -118.1636 104° East 406 467 16,000 1,854 Climbing Los Angeles Center
Mon 10:21:43 PM 33.5828 -118.0019 110° East 432 497 18,500 2,164 Climbing Los Angeles Center
Mon 10:22:44 PM 33.5389 -117.8597 110° East 456 525 20,400 1,854 Climbing Los Angeles Center
Mon 10:23:46 PM 33.4933 -117.7133 110° East 469 540 22,300 1,765 Climbing Los Angeles Center
Mon 10:25:00 PM 33.4342 -117.5350 112° Southeast 482 555 24,400 1,556 Climbing Los Angeles Center
Mon 10:26:01 PM 33.3758 -117.3858 115° Southeast 494 568 25,800 1,415 Climbing Los Angeles Center
Mon 10:27:03 PM 33.3078 -117.2386 119° Southeast 505 581 27,300 1,463 Climbing Los Angeles Center
Mon 10:28:04 PM 33.2306 -117.0775 120° Southeast 514 592 28,800 1,230 Climbing Los Angeles Center
Mon 10:29:05 PM 33.1739 -116.9553 119° Southeast 522 601 29,800 1,232 Climbing Los Angeles Center
Mon 10:31:09 PM 33.0136 -116.6117 119° Southeast 537 618 32,600 1,038 Climbing Los Angeles Center
Mon 10:32:10 PM 32.9325 -116.4422 120° Southeast 537 618 33,000 178 Climbing Los Angeles Center
Mon 10:33:24 PM 32.8600 -116.2875 119° Southeast 537 618 33,000  Level Los Angeles Center
Mon 10:34:26 PM 32.7728 -116.1058 120° Southeast 534 615 33,000 -49 Level Los Angeles Center
Mon 10:35:27 PM 32.6992 -115.9536 120° Southeast 533 613 32,900  Descending Los Angeles Center
Mon 10:36:29 PM 32.6092 -115.7669 120° Southeast 542 624 33,000 97 Climbing Los Angeles Center
Mon 10:38:00 PM 32.5745 -115.5211 125° Southeast  Level FlightAware Approximate
Mon 10:45:00 PM 32.0381 -114.6134 125° Southeast  Level FlightAware Approximate
Mon 10:46:00 PM 31.9612 -114.4843 125° Southeast  Level FlightAware Approximate
Mon 10:47:00 PM 31.8843 -114.3555 125° Southeast  Level FlightAware Approximate
Mon 10:48:00 PM 31.8072 -114.2269 125° Southeast  Level FlightAware Approximate
Mon 10:49:00 PM 31.7299 -114.0984 125° Southeast  Level FlightAware Approximate
Mon 10:50:00 PM 31.6526 -113.9702 125° Southeast  Level FlightAware Approximate
Mon 10:51:00 PM 31.5751 -113.8422 125° Southeast  Level FlightAware Approximate
Mon 10:52:00 PM 31.4975 -113.7145 125° Southeast  Level FlightAware Approximate
Mon 10:53:00 PM 31.4198 -113.5869 126° Southeast  Level FlightAware Approximate
Mon 10:54:00 PM 31.3451 -113.4571 120° Southeast  Level FlightAware Approximate
Mon 10:55:00 PM 31.2773 -113.3222 120° Southeast  Level FlightAware Approximate
Mon 10:56:00 PM 31.2093 -113.1875 121° Southeast  Level FlightAware Approximate
Mon 10:57:00 PM 31.1412 -113.0530 121° Southeast  Level FlightAware Approximate
Mon 10:58:00 PM 31.0729 -112.9187 121° Southeast  Level FlightAware Approximate
Mon 10:59:00 PM 31.0045 -112.7846 121° Southeast  Level FlightAware Approximate
Mon 11:00:00 PM 30.9360 -112.6507 121° Southeast  Level FlightAware Approximate
Mon 11:01:00 PM 30.8673 -112.5170 121° Southeast  Level FlightAware Approximate
Mon 11:02:00 PM 30.7958 -112.3854 123° Southeast  Level FlightAware Approximate
Mon 11:03:00 PM 30.7233 -112.2546 123° Southeast  Level FlightAware Approximate
Mon 11:04:00 PM 30.6506 -112.1240 123° Southeast  Level FlightAware Approximate
Mon 11:05:00 PM 30.5785 -111.9932 122° Southeast  Level FlightAware Approximate
Mon 11:06:00 PM 30.5076 -111.8616 122° Southeast  Level FlightAware Approximate
Mon 11:07:00 PM 30.4359 -111.7306 123° Southeast  Level FlightAware Approximate
Mon 11:08:00 PM 30.3639 -111.6000 123° Southeast  Level FlightAware Approximate
Mon 11:09:00 PM 30.2917 -111.4695 123° Southeast  Level FlightAware Approximate
Mon 11:10:00 PM 30.2193 -111.3393 123° Southeast  Level FlightAware Approximate
Mon 11:11:00 PM 30.1469 -111.2093 123° Southeast  Level FlightAware Approximate
Mon 11:12:00 PM 30.0743 -111.0795 123° Southeast  Level FlightAware Approximate
Mon 11:13:00 PM 30.0016 -110.9498 123° Southeast  Level FlightAware Approximate
Mon 11:14:00 PM 29.9287 -110.8204 123° Southeast  Level FlightAware Approximate
Mon 11:15:00 PM 29.8558 -110.6911 123° Southeast  Level FlightAware Approximate
Mon 11:16:00 PM 29.7827 -110.5620 123° Southeast  Level FlightAware Approximate
Mon 11:17:00 PM 29.7094 -110.4332 123° Southeast  Level FlightAware Approximate
Mon 11:18:00 PM 29.6361 -110.3045 123° Southeast  Level FlightAware Approximate
Mon 11:19:00 PM 29.5626 -110.1759 123° Southeast  Level FlightAware Approximate
Mon 11:20:00 PM 29.4890 -110.0476 123° Southeast  Level FlightAware Approximate
Mon 11:21:00 PM 29.4153 -109.9195 123° Southeast  Level FlightAware Approximate
Mon 11:22:00 PM 29.3415 -109.7915 123° Southeast  Level FlightAware Approximate
Mon 11:23:00 PM 29.2675 -109.6638 124° Southeast  Level FlightAware Approximate
Mon 11:24:00 PM 29.1935 -109.5362 124° Southeast  Level FlightAware Approximate
Mon 11:25:00 PM 29.1193 -109.4088 124° Southeast  Level FlightAware Approximate
Mon 11:26:00 PM 29.0449 -109.2816 124° Southeast  Level FlightAware Approximate
Mon 11:27:00 PM 28.9705 -109.1545 124° Southeast  Level FlightAware Approximate
Mon 11:28:00 PM 28.8959 -109.0277 124° Southeast  Level FlightAware Approximate
Mon 11:29:00 PM 28.8213 -108.9010 124° Southeast  Level FlightAware Approximate
Mon 11:30:00 PM 28.7465 -108.7746 124° Southeast  Level FlightAware Approximate
Mon 11:31:00 PM 28.6716 -108.6482 124° Southeast  Level FlightAware Approximate
Mon 11:32:00 PM 28.5965 -108.5221 124° Southeast  Level FlightAware Approximate
Mon 11:33:00 PM 28.5224 -108.3954 124° Southeast  Level FlightAware Approximate
Mon 11:34:00 PM 28.4483 -108.2687 124° Southeast  Level FlightAware Approximate
Mon 11:35:00 PM 28.3742 -108.1422 124° Southeast  Level FlightAware Approximate
Mon 11:36:00 PM 28.2999 -108.0158 124° Southeast  Level FlightAware Approximate
Mon 11:37:00 PM 28.2255 -107.8897 124° Southeast  Level FlightAware Approximate
Mon 11:38:00 PM 28.1510 -107.7637 124° Southeast  Level FlightAware Approximate
Mon 11:39:00 PM 28.0764 -107.6379 124° Southeast  Level FlightAware Approximate
Mon 11:40:00 PM 28.0017 -107.5122 124° Southeast  Level FlightAware Approximate
Mon 11:41:00 PM 27.9268 -107.3867 124° Southeast  Level FlightAware Approximate
Mon 11:42:00 PM 27.8519 -107.2615 124° Southeast  Level FlightAware Approximate
Mon 11:43:00 PM 27.7768 -107.1363 124° Southeast  Level FlightAware Approximate
Mon 11:44:00 PM 27.7016 -107.0114 124° Southeast  Level FlightAware Approximate
Mon 11:45:00 PM 27.6263 -106.8866 124° Southeast  Level FlightAware Approximate
Mon 11:46:00 PM 27.5509 -106.7620 124° Southeast  Level FlightAware Approximate
Mon 11:47:00 PM 27.4754 -106.6376 124° Southeast  Level FlightAware Approximate
Mon 11:48:00 PM 27.3997 -106.5133 124° Southeast  Level FlightAware Approximate
Mon 11:49:00 PM 27.3240 -106.3892 124° Southeast  Level FlightAware Approximate
Mon 11:50:00 PM 27.2481 -106.2653 125° Southeast  Level FlightAware Approximate
Mon 11:51:00 PM 27.1722 -106.1415 125° Southeast  Level FlightAware Approximate
Mon 11:52:00 PM 27.0961 -106.0179 125° Southeast  Level FlightAware Approximate
Mon 11:53:00 PM 27.0199 -105.8945 125° Southeast  Level FlightAware Approximate
Mon 11:54:00 PM 26.9436 -105.7713 125° Southeast  Level FlightAware Approximate
Mon 11:55:00 PM 26.8673 -105.6482 125° Southeast  Level FlightAware Approximate
Mon 11:56:00 PM 26.7908 -105.5253 125° Southeast  Level FlightAware Approximate
Mon 11:57:00 PM 26.7142 -105.4025 125° Southeast  Level FlightAware Approximate
Mon 11:58:00 PM 26.6374 -105.2799 125° Southeast  Level FlightAware Approximate
Mon 11:59:00 PM 26.5606 -105.1575 125° Southeast  Level FlightAware Approximate
Tue 12:00:00 AM 26.4837 -105.0352 125° Southeast  Level FlightAware Approximate
Tue 12:01:00 AM 26.4067 -104.9131 125° Southeast  Level FlightAware Approximate
Tue 12:02:00 AM 26.3296 -104.7912 125° Southeast  Level FlightAware Approximate
Tue 12:03:00 AM 26.2523 -104.6694 125° Southeast  Level FlightAware Approximate
Tue 12:04:00 AM 26.1750 -104.5478 125° Southeast  Level FlightAware Approximate
Tue 12:05:00 AM 26.0976 -104.4264 125° Southeast  Level FlightAware Approximate
Tue 12:06:00 AM 26.0200 -104.3051 125° Southeast  Level FlightAware Approximate
Tue 12:07:00 AM 25.9424 -104.1840 125° Southeast  Level FlightAware Approximate
Tue 12:08:00 AM 25.8647 -104.0630 126° Southeast  Level FlightAware Approximate
Tue 12:09:00 AM 25.7868 -103.9422 126° Southeast  Level FlightAware Approximate
Tue 12:10:00 AM 25.7089 -103.8215 126° Southeast  Level FlightAware Approximate
Tue 12:11:00 AM 25.6308 -103.7010 126° Southeast  Level FlightAware Approximate
Tue 12:12:00 AM 25.5527 -103.5807 126° Southeast  Level FlightAware Approximate
Tue 12:13:00 AM 25.4745 -103.4605 126° Southeast  Level FlightAware Approximate
Tue 12:14:00 AM 25.3961 -103.3405 126° Southeast  Level FlightAware Approximate
Tue 12:15:00 AM 25.3177 -103.2206 126° Southeast  Level FlightAware Approximate
Tue 12:16:00 AM 25.2392 -103.1009 126° Southeast  Level FlightAware Approximate
Tue 12:17:00 AM 25.1605 -102.9814 126° Southeast  Level FlightAware Approximate
Tue 12:18:00 AM 25.0817 -102.8621 126° Southeast  Level FlightAware Approximate
Tue 12:19:00 AM 25.0028 -102.7429 126° Southeast  Level FlightAware Approximate
Tue 12:20:00 AM 24.9238 -102.6239 126° Southeast  Level FlightAware Approximate
Tue 12:21:00 AM 24.8447 -102.5050 126° Southeast  Level FlightAware Approximate
Tue 12:22:00 AM 24.7655 -102.3863 126° Southeast  Level FlightAware Approximate
Tue 12:23:00 AM 24.6863 -102.2677 126° Southeast  Level FlightAware Approximate
Tue 12:24:00 AM 24.6069 -102.1493 126° Southeast  Level FlightAware Approximate
Tue 12:25:00 AM 24.5274 -102.0311 126° Southeast  Level FlightAware Approximate
Tue 12:26:00 AM 24.4479 -101.9129 126° Southeast  Level FlightAware Approximate
Tue 12:27:00 AM 24.3708 -101.7930 124° Southeast  Level FlightAware Approximate
Tue 12:28:00 AM 24.2952 -101.6719 124° Southeast  Level FlightAware Approximate
Tue 12:29:00 AM 24.2195 -101.5510 124° Southeast  Level FlightAware Approximate
Tue 12:30:00 AM 24.1395 -101.4339 132° Southeast  Level FlightAware Approximate
Tue 12:31:00 AM 24.0494 -101.3256 132° Southeast  Level FlightAware Approximate
Tue 12:32:00 AM 23.9593 -101.2174 132° Southeast  Level FlightAware Approximate
Tue 12:33:00 AM 23.8691 -101.1094 132° Southeast  Level FlightAware Approximate
Tue 12:34:00 AM 23.7789 -101.0015 132° Southeast  Level FlightAware Approximate
Tue 12:35:00 AM 23.6886 -100.8938 132° Southeast  Level FlightAware Approximate
Tue 12:36:00 AM 23.5981 -100.7862 133° Southeast  Level FlightAware Approximate
Tue 12:37:00 AM 23.5077 -100.6788 133° Southeast  Level FlightAware Approximate
Tue 12:38:00 AM 23.4177 -100.5712 131° Southeast  Level FlightAware Approximate
Tue 12:39:00 AM 23.3305 -100.4607 131° Southeast  Level FlightAware Approximate
Tue 12:40:00 AM 23.2433 -100.3503 131° Southeast  Level FlightAware Approximate
Tue 12:41:00 AM 23.1546 -100.2414 132° Southeast  Level FlightAware Approximate
Tue 12:42:00 AM 23.0652 -100.1333 132° Southeast  Level FlightAware Approximate
Tue 12:43:00 AM 22.9757 -100.0253 132° Southeast  Level FlightAware Approximate
Tue 12:44:00 AM 22.8862 -99.9175 132° Southeast  Level FlightAware Approximate
Tue 12:45:00 AM 22.7966 -99.8098 132° Southeast  Level FlightAware Approximate
Tue 12:46:00 AM 22.7069 -99.7022 132° Southeast  Level FlightAware Approximate
Tue 12:47:00 AM 22.6171 -99.5948 132° Southeast  Level FlightAware Approximate
Tue 12:48:00 AM 22.5273 -99.4875 132° Southeast  Level FlightAware Approximate
Tue 12:49:00 AM 22.4374 -99.3804 132° Southeast  Level FlightAware Approximate
Tue 12:50:00 AM 22.3474 -99.2734 132° Southeast  Level FlightAware Approximate
Tue 12:51:00 AM 22.2574 -99.1665 132° Southeast  Level FlightAware Approximate
Tue 12:52:00 AM 22.1672 -99.0598 132° Southeast  Level FlightAware Approximate
Tue 12:53:00 AM 22.0772 -98.9531 132° Southeast  Level FlightAware Approximate
Tue 12:54:00 AM 21.9872 -98.8464 132° Southeast  Level FlightAware Approximate
Tue 12:55:00 AM 21.8972 -98.7398 132° Southeast  Level FlightAware Approximate
Tue 12:56:00 AM 21.8071 -98.6333 132° Southeast  Level FlightAware Approximate
Tue 12:57:00 AM 21.7169 -98.5270 132° Southeast  Level FlightAware Approximate
Tue 12:58:00 AM 21.6266 -98.4208 132° Southeast  Level FlightAware Approximate
Tue 12:59:00 AM 21.5363 -98.3147 132° Southeast  Level FlightAware Approximate
Tue 01:00:00 AM 21.4459 -98.2088 133° Southeast  Level FlightAware Approximate
Tue 01:01:00 AM 21.3555 -98.1030 133° Southeast  Level FlightAware Approximate
Tue 01:02:00 AM 21.2650 -97.9973 133° Southeast  Level FlightAware Approximate
Tue 01:03:00 AM 21.1744 -97.8918 133° Southeast  Level FlightAware Approximate
Tue 01:04:00 AM 21.0837 -97.7864 133° Southeast  Level FlightAware Approximate
Tue 01:05:00 AM 20.9930 -97.6811 133° Southeast  Level FlightAware Approximate
Tue 01:06:00 AM 20.9023 -97.5759 133° Southeast  Level FlightAware Approximate
Tue 01:07:00 AM 20.8114 -97.4709 133° Southeast  Level FlightAware Approximate
Tue 01:08:00 AM 20.7205 -97.3660 133° Southeast  Level FlightAware Approximate
Tue 01:09:00 AM 20.6296 -97.2613 133° Southeast  Level FlightAware Approximate
Tue 01:10:00 AM 20.5385 -97.1566 133° Southeast  Level FlightAware Approximate
Tue 01:11:00 AM 20.4474 -97.0521 133° Southeast  Level FlightAware Approximate
Tue 01:12:00 AM 20.3563 -96.9477 133° Southeast  Level FlightAware Approximate
Tue 01:13:00 AM 20.2655 -96.8430 132° Southeast  Level FlightAware Approximate
Tue 01:14:00 AM 20.1774 -96.7359 128° Southeast  Level FlightAware Approximate
Tue 01:15:00 AM 20.0949 -96.6238 128° Southeast  Level FlightAware Approximate
Tue 01:16:00 AM 20.0123 -96.5118 128° Southeast  Level FlightAware Approximate
Tue 01:17:00 AM 19.9297 -96.3999 128° Southeast  Level FlightAware Approximate
Tue 01:18:00 AM 19.8470 -96.2882 128° Southeast  Level FlightAware Approximate
Tue 01:19:00 AM 19.7642 -96.1765 128° Southeast  Level FlightAware Approximate
Tue 01:20:00 AM 19.6814 -96.0650 128° Southeast  Level FlightAware Approximate
Tue 01:21:00 AM 19.5985 -95.9536 128° Southeast  Level FlightAware Approximate
Tue 01:22:00 AM 19.5155 -95.8423 128° Southeast  Level FlightAware Approximate
Tue 01:23:00 AM 19.4325 -95.7311 128° Southeast  Level FlightAware Approximate
Tue 01:24:00 AM 19.3494 -95.6201 128° Southeast  Level FlightAware Approximate
Tue 01:25:00 AM 19.2662 -95.5091 128° Southeast  Level FlightAware Approximate
Tue 01:26:00 AM 19.1829 -95.3983 128° Southeast  Level FlightAware Approximate
Tue 01:27:00 AM 19.0996 -95.2876 129° Southeast  Level FlightAware Approximate
Tue 01:28:00 AM 19.0162 -95.1769 129° Southeast  Level FlightAware Approximate
Tue 01:29:00 AM 18.9329 -95.0663 128° Southeast  Level FlightAware Approximate
Tue 01:30:00 AM 18.8496 -94.9558 129° Southeast  Level FlightAware Approximate
Tue 01:31:00 AM 18.7662 -94.8453 129° Southeast  Level FlightAware Approximate
Tue 01:32:00 AM 18.6828 -94.7350 129° Southeast  Level FlightAware Approximate
Tue 01:33:00 AM 18.5993 -94.6247 129° Southeast  Level FlightAware Approximate
Tue 01:34:00 AM 18.5157 -94.5146 129° Southeast  Level FlightAware Approximate
Tue 01:35:00 AM 18.4321 -94.4046 129° Southeast  Level FlightAware Approximate
Tue 01:36:00 AM 18.3484 -94.2947 129° Southeast  Level FlightAware Approximate
Tue 01:37:00 AM 18.2646 -94.1849 129° Southeast  Level FlightAware Approximate
Tue 01:38:00 AM 18.1808 -94.0752 129° Southeast  Level FlightAware Approximate
Tue 01:39:00 AM 18.0969 -93.9656 129° Southeast  Level FlightAware Approximate
Tue 01:40:00 AM 18.0129 -93.8561 129° Southeast  Level FlightAware Approximate
Tue 01:41:00 AM 17.9289 -93.7467 129° Southeast  Level FlightAware Approximate
Tue 01:42:00 AM 17.8448 -93.6375 129° Southeast  Level FlightAware Approximate
Tue 01:43:00 AM 17.7607 -93.5283 129° Southeast  Level FlightAware Approximate
Tue 01:44:00 AM 17.6765 -93.4192 129° Southeast  Level FlightAware Approximate
Tue 01:45:00 AM 17.5923 -93.3102 129° Southeast  Level FlightAware Approximate
Tue 01:46:00 AM 17.5080 -93.2014 129° Southeast  Level FlightAware Approximate
Tue 01:47:00 AM 17.4236 -93.0926 129° Southeast  Level FlightAware Approximate
Tue 01:48:00 AM 17.3392 -92.9839 129° Southeast  Level FlightAware Approximate
Tue 01:49:00 AM 17.2547 -92.8754 129° Southeast  Level FlightAware Approximate
Tue 01:50:00 AM 17.1701 -92.7669 129° Southeast  Level FlightAware Approximate
Tue 01:51:00 AM 17.0855 -92.6585 129° Southeast  Level FlightAware Approximate
Tue 01:52:00 AM 17.0009 -92.5502 129° Southeast  Level FlightAware Approximate
Tue 01:53:00 AM 16.9161 -92.4421 129° Southeast  Level FlightAware Approximate
Tue 01:54:00 AM 16.8314 -92.3340 129° Southeast  Level FlightAware Approximate
Tue 01:55:00 AM 16.7465 -92.2260 129° Southeast  Level FlightAware Approximate
Tue 01:56:00 AM 16.6616 -92.1181 129° Southeast  Level FlightAware Approximate
Tue 01:57:00 AM 16.5767 -92.0104 129° Southeast  Level FlightAware Approximate
Tue 01:58:00 AM 16.4917 -91.9027 129° Southeast  Level FlightAware Approximate
Tue 01:59:00 AM 16.4066 -91.7951 129° Southeast  Level FlightAware Approximate
Tue 02:00:00 AM 16.3215 -91.6876 130° Southeast  Level FlightAware Approximate
Tue 02:01:00 AM 16.2363 -91.5802 130° Southeast  Level FlightAware Approximate
Tue 02:02:00 AM 16.1511 -91.4728 130° Southeast  Level FlightAware Approximate
Tue 02:03:00 AM 16.0658 -91.3656 130° Southeast  Level FlightAware Approximate
Tue 02:04:00 AM 15.9802 -91.2587 130° Southeast  Level FlightAware Approximate
Tue 02:05:00 AM 15.8946 -91.1519 130° Southeast  Level FlightAware Approximate
Tue 02:06:00 AM 15.8089 -91.0452 130° Southeast  Level FlightAware Approximate
Tue 02:07:00 AM 15.7231 -90.9386 130° Southeast  Level FlightAware Approximate
Tue 02:08:00 AM 15.6373 -90.8321 130° Southeast  Level FlightAware Approximate
Tue 02:09:00 AM 15.5514 -90.7257 130° Southeast  Level FlightAware Approximate
Tue 02:10:00 AM 15.4655 -90.6193 130° Southeast  Level FlightAware Approximate
Tue 02:11:00 AM 15.3795 -90.5131 130° Southeast  Level FlightAware Approximate
Tue 02:12:00 AM 15.2935 -90.4069 130° Southeast  Level FlightAware Approximate
Tue 02:13:00 AM 15.2074 -90.3008 130° Southeast  Level FlightAware Approximate
Tue 02:14:00 AM 15.1213 -90.1948 130° Southeast  Level FlightAware Approximate
Tue 02:15:00 AM 15.0351 -90.0889 130° Southeast  Level FlightAware Approximate
Tue 02:16:00 AM 14.9489 -89.9831 130° Southeast  Level FlightAware Approximate
Tue 02:17:00 AM 14.8626 -89.8773 130° Southeast  Level FlightAware Approximate
Tue 02:18:00 AM 14.7763 -89.7717 130° Southeast  Level FlightAware Approximate
Tue 02:19:00 AM 14.6900 -89.6661 130° Southeast  Level FlightAware Approximate
Tue 02:20:00 AM 14.6035 -89.5606 130° Southeast  Level FlightAware Approximate
Tue 02:21:00 AM 14.5171 -89.4552 130° Southeast  Level FlightAware Approximate
Tue 02:22:00 AM 14.4306 -89.3499 130° Southeast  Level FlightAware Approximate
Tue 02:23:00 AM 14.3440 -89.2447 130° Southeast  Level FlightAware Approximate
Tue 02:24:00 AM 14.2574 -89.1395 130° Southeast  Level FlightAware Approximate
Tue 02:25:00 AM 14.1708 -89.0344 130° Southeast  Level FlightAware Approximate
Tue 02:26:00 AM 14.0841 -88.9294 130° Southeast  Level FlightAware Approximate
Tue 02:27:00 AM 13.9973 -88.8245 130° Southeast  Level FlightAware Approximate
Tue 02:28:00 AM 13.9106 -88.7197 130° Southeast  Level FlightAware Approximate
Tue 02:29:00 AM 13.8237 -88.6149 131° Southeast  Level FlightAware Approximate
Tue 02:30:00 AM 13.7368 -88.5103 131° Southeast  Level FlightAware Approximate
Tue 02:31:00 AM 13.6498 -88.4057 131° Southeast  Level FlightAware Approximate
Tue 02:32:00 AM 13.5628 -88.3012 131° Southeast  Level FlightAware Approximate
Tue 02:33:00 AM 13.4758 -88.1968 131° Southeast  Level FlightAware Approximate
Tue 02:34:00 AM 13.3887 -88.0924 131° Southeast  Level FlightAware Approximate
Tue 02:35:00 AM 13.3016 -87.9882 131° Southeast  Level FlightAware Approximate
Tue 02:36:00 AM 13.2144 -87.8840 131° Southeast  Level FlightAware Approximate
Tue 02:37:00 AM 13.1272 -87.7799 131° Southeast  Level FlightAware Approximate
Tue 02:38:00 AM 13.0400 -87.6758 131° Southeast  Level FlightAware Approximate
Tue 02:39:00 AM 12.9527 -87.5719 131° Southeast  Level FlightAware Approximate
Tue 02:40:00 AM 12.8653 -87.4680 131° Southeast  Level FlightAware Approximate
Tue 02:41:00 AM 12.7779 -87.3642 131° Southeast  Level FlightAware Approximate
Tue 02:42:00 AM 12.6905 -87.2604 131° Southeast  Level FlightAware Approximate
Tue 02:43:00 AM 12.6031 -87.1567 131° Southeast  Level FlightAware Approximate
Tue 02:44:00 AM 12.5155 -87.0531 131° Southeast  Level FlightAware Approximate
Tue 02:45:00 AM 12.4280 -86.9496 131° Southeast  Level FlightAware Approximate
Tue 02:46:00 AM 12.3404 -86.8461 131° Southeast  Level FlightAware Approximate
Tue 02:47:00 AM 12.2528 -86.7427 131° Southeast  Level FlightAware Approximate
Tue 02:48:00 AM 12.1651 -86.6394 131° Southeast  Level FlightAware Approximate
Tue 02:49:00 AM 12.0774 -86.5361 131° Southeast  Level FlightAware Approximate
Tue 02:50:00 AM 11.9897 -86.4329 131° Southeast  Level FlightAware Approximate
Tue 02:51:00 AM 11.9019 -86.3298 131° Southeast  Level FlightAware Approximate
Tue 02:52:00 AM 11.8139 -86.2269 131° Southeast  Level FlightAware Approximate
Tue 02:53:00 AM 11.7259 -86.1241 131° Southeast  Level FlightAware Approximate
Tue 02:54:00 AM 11.6379 -86.0213 131° Southeast  Level FlightAware Approximate
Tue 02:55:00 AM 11.5498 -85.9185 131° Southeast  Level FlightAware Approximate
Tue 02:56:00 AM 11.4617 -85.8159 131° Southeast  Level FlightAware Approximate
Tue 02:57:00 AM 11.3736 -85.7133 131° Southeast  Level FlightAware Approximate
Tue 02:58:00 AM 11.2854 -85.6108 131° Southeast  Level FlightAware Approximate
Tue 02:59:00 AM 11.1972 -85.5083 131° Southeast  Level FlightAware Approximate
Tue 03:00:00 AM 11.1089 -85.4059 131° Southeast  Level FlightAware Approximate
Tue 03:01:00 AM 11.0206 -85.3035 131° Southeast  Level FlightAware Approximate
Tue 03:02:00 AM 10.9323 -85.2012 131° Southeast  Level FlightAware Approximate
Tue 03:03:00 AM 10.8440 -85.0990 131° Southeast  Level FlightAware Approximate
Tue 03:04:00 AM 10.7556 -84.9969 131° Southeast  Level FlightAware Approximate
Tue 03:05:00 AM 10.6671 -84.8948 131° Southeast  Level FlightAware Approximate
Tue 03:06:00 AM 10.5787 -84.7927 131° Southeast  Level FlightAware Approximate
Tue 03:07:00 AM 10.4902 -84.6907 131° Southeast  Level FlightAware Approximate
Tue 03:08:00 AM 10.4017 -84.5888 131° Southeast  Level FlightAware Approximate
Tue 03:09:00 AM 10.3131 -84.4869 131° Southeast  Level FlightAware Approximate
Tue 03:10:00 AM 10.2246 -84.3851 131° Southeast  Level FlightAware Approximate
Tue 03:11:00 AM 10.1359 -84.2834 131° Southeast  Level FlightAware Approximate
Tue 03:12:00 AM 10.0473 -84.1817 132° Southeast  Level FlightAware Approximate
Tue 03:13:00 AM 9.9586 -84.0800 132° Southeast  Level FlightAware Approximate
Tue 03:14:00 AM 9.8699 -83.9784 132° Southeast  Level FlightAware Approximate
Tue 03:15:00 AM 9.7811 -83.8769 132° Southeast  Level FlightAware Approximate
Tue 03:16:00 AM 9.6924 -83.7754 132° Southeast  Level FlightAware Approximate
Tue 03:17:00 AM 9.6036 -83.6740 132° Southeast  Level FlightAware Approximate
Tue 03:18:00 AM 9.5147 -83.5726 132° Southeast  Level FlightAware Approximate
Tue 03:19:00 AM 9.4259 -83.4713 132° Southeast  Level FlightAware Approximate
Tue 03:20:00 AM 9.3370 -83.3700 132° Southeast  Level FlightAware Approximate
Tue 03:21:00 AM 9.2481 -83.2688 132° Southeast  Level FlightAware Approximate
Tue 03:22:00 AM 9.1592 -83.1677 132° Southeast  Level FlightAware Approximate
Tue 03:23:00 AM 9.0702 -83.0666 132° Southeast  Level FlightAware Approximate
Tue 03:24:00 AM 8.9812 -82.9655 132° Southeast  Level FlightAware Approximate
Tue 03:25:00 AM 8.8922 -82.8645 132° Southeast  Level FlightAware Approximate
Tue 03:26:00 AM 8.8033 -82.7634 132° Southeast  Level FlightAware Approximate
Tue 03:27:00 AM 8.7145 -82.6622 132° Southeast  Level FlightAware Approximate
Tue 03:28:00 AM 8.6257 -82.5611 132° Southeast  Level FlightAware Approximate
Tue 03:29:00 AM 8.5368 -82.4600 132° Southeast  Level FlightAware Approximate
Tue 03:30:00 AM 8.4479 -82.3590 132° Southeast  Level FlightAware Approximate
Tue 03:31:00 AM 8.3590 -82.2580 132° Southeast  Level FlightAware Approximate
Tue 03:32:00 AM 8.2701 -82.1570 132° Southeast  Level FlightAware Approximate
Tue 03:33:00 AM 8.1812 -82.0561 132° Southeast  Level FlightAware Approximate
Tue 03:34:00 AM 8.0922 -81.9553 132° Southeast  Level FlightAware Approximate
Tue 03:35:00 AM 8.0032 -81.8545 132° Southeast  Level FlightAware Approximate
Tue 03:36:00 AM 7.9142 -81.7537 132° Southeast  Level FlightAware Approximate
Tue 03:37:00 AM 7.8251 -81.6530 132° Southeast  Level FlightAware Approximate
Tue 03:38:00 AM 7.7360 -81.5523 132° Southeast  Level FlightAware Approximate
Tue 03:39:00 AM 7.6469 -81.4517 132° Southeast  Level FlightAware Approximate
Tue 03:40:00 AM 7.5578 -81.3511 132° Southeast  Level FlightAware Approximate
Tue 03:41:00 AM 7.4687 -81.2506 132° Southeast  Level FlightAware Approximate
Tue 03:42:00 AM 7.3795 -81.1501 132° Southeast  Level FlightAware Approximate
Tue 03:43:00 AM 7.2903 -81.0496 132° Southeast  Level FlightAware Approximate
Tue 03:44:00 AM 7.2011 -80.9492 132° Southeast  Level FlightAware Approximate
Tue 03:45:00 AM 7.1119 -80.8488 132° Southeast  Level FlightAware Approximate
Tue 03:46:00 AM 7.0226 -80.7484 132° Southeast  Level FlightAware Approximate
Tue 03:47:00 AM 6.9334 -80.6481 132° Southeast  Level FlightAware Approximate
Tue 03:48:00 AM 6.8440 -80.5478 132° Southeast  Level FlightAware Approximate
Tue 03:49:00 AM 6.7547 -80.4476 132° Southeast  Level FlightAware Approximate
Tue 03:50:00 AM 6.6654 -80.3474 132° Southeast  Level FlightAware Approximate
Tue 03:51:00 AM 6.5760 -80.2473 132° Southeast  Level FlightAware Approximate
Tue 03:52:00 AM 6.4866 -80.1471 132° Southeast  Level FlightAware Approximate
Tue 03:53:00 AM 6.3973 -80.0470 132° Southeast  Level FlightAware Approximate
Tue 03:54:00 AM 6.3078 -79.9470 132° Southeast  Level FlightAware Approximate
Tue 03:55:00 AM 6.2184 -79.8470 132° Southeast  Level FlightAware Approximate
Tue 03:56:00 AM 6.1290 -79.7470 132° Southeast  Level FlightAware Approximate
Tue 03:57:00 AM 6.0395 -79.6470 132° Southeast  Level FlightAware Approximate
Tue 03:58:00 AM 5.9500 -79.5471 132° Southeast  Level FlightAware Approximate
Tue 03:59:00 AM 5.8605 -79.4472 132° Southeast  Level FlightAware Approximate
Tue 04:00:00 AM 5.7709 -79.3474 132° Southeast  Level FlightAware Approximate
Tue 04:01:00 AM 5.6814 -79.2476 132° Southeast  Level FlightAware Approximate
Tue 04:02:00 AM 5.5918 -79.1478 132° Southeast  Level FlightAware Approximate
Tue 04:03:00 AM 5.5023 -79.0480 132° Southeast  Level FlightAware Approximate
Tue 04:04:00 AM 5.4127 -78.9483 132° Southeast  Level FlightAware Approximate
Tue 04:05:00 AM 5.3231 -78.8486 132° Southeast  Level FlightAware Approximate
Tue 04:06:00 AM 5.2334 -78.7489 132° Southeast  Level FlightAware Approximate
Tue 04:07:00 AM 5.1438 -78.6493 132° Southeast  Level FlightAware Approximate
Tue 04:08:00 AM 5.0541 -78.5496 132° Southeast  Level FlightAware Approximate
Tue 04:09:00 AM 4.9645 -78.4501 132° Southeast  Level FlightAware Approximate
Tue 04:10:00 AM 4.8748 -78.3505 132° Southeast  Level FlightAware Approximate
Tue 04:11:00 AM 4.7851 -78.2510 132° Southeast  Level FlightAware Approximate
Tue 04:12:00 AM 4.6954 -78.1515 132° Southeast  Level FlightAware Approximate
Tue 04:13:00 AM 4.6056 -78.0520 132° Southeast  Level FlightAware Approximate
Tue 04:14:00 AM 4.5159 -77.9525 132° Southeast  Level FlightAware Approximate
Tue 04:15:00 AM 4.4261 -77.8531 132° Southeast  Level FlightAware Approximate
Tue 04:16:00 AM 4.3364 -77.7537 132° Southeast  Level FlightAware Approximate
Tue 04:17:00 AM 4.2466 -77.6543 132° Southeast  Level FlightAware Approximate
Tue 04:18:00 AM 4.1568 -77.5549 132° Southeast  Level FlightAware Approximate
Tue 04:19:00 AM 4.0670 -77.4556 132° Southeast  Level FlightAware Approximate
Tue 04:20:00 AM 3.9771 -77.3563 132° Southeast  Level FlightAware Approximate
Tue 04:21:00 AM 3.8873 -77.2570 132° Southeast  Level FlightAware Approximate
Tue 04:22:00 AM 3.7975 -77.1577 132° Southeast  Level FlightAware Approximate
Tue 04:23:00 AM 3.7076 -77.0584 132° Southeast  Level FlightAware Approximate
Tue 04:24:00 AM 3.6177 -76.9592 132° Southeast  Level FlightAware Approximate
Tue 04:25:00 AM 3.5279 -76.8600 132° Southeast  Level FlightAware Approximate
Tue 04:26:00 AM 3.4380 -76.7608 132° Southeast  Level FlightAware Approximate
Tue 04:27:00 AM 3.3481 -76.6616 132° Southeast  Level FlightAware Approximate
Tue 04:28:00 AM 3.2582 -76.5625 132° Southeast  Level FlightAware Approximate
Tue 04:29:00 AM 3.1682 -76.4633 132° Southeast  Level FlightAware Approximate
Tue 04:30:00 AM 3.0783 -76.3642 132° Southeast  Level FlightAware Approximate
Tue 04:31:00 AM 2.9884 -76.2651 132° Southeast  Level FlightAware Approximate
Tue 04:32:00 AM 2.8984 -76.1660 132° Southeast  Level FlightAware Approximate
Tue 04:33:00 AM 2.8085 -76.0669 132° Southeast  Level FlightAware Approximate
Tue 04:34:00 AM 2.7185 -75.9679 132° Southeast  Level FlightAware Approximate
Tue 04:35:00 AM 2.6285 -75.8688 132° Southeast  Level FlightAware Approximate
Tue 04:36:00 AM 2.5385 -75.7698 132° Southeast  Level FlightAware Approximate
Tue 04:37:00 AM 2.4486 -75.6708 132° Southeast  Level FlightAware Approximate
Tue 04:38:00 AM 2.3586 -75.5718 132° Southeast  Level FlightAware Approximate
Tue 04:39:00 AM 2.2686 -75.4728 132° Southeast  Level FlightAware Approximate
Tue 04:40:00 AM 2.1786 -75.3738 132° Southeast  Level FlightAware Approximate
Tue 04:41:00 AM 2.0886 -75.2748 132° Southeast  Level FlightAware Approximate
Tue 04:42:00 AM 1.9985 -75.1759 132° Southeast  Level FlightAware Approximate
Tue 04:43:00 AM 1.9085 -75.0770 132° Southeast  Level FlightAware Approximate
Tue 04:44:00 AM 1.8185 -74.9780 132° Southeast  Level FlightAware Approximate
Tue 04:45:00 AM 1.7284 -74.8791 132° Southeast  Level FlightAware Approximate
Tue 04:46:00 AM 1.6384 -74.7802 132° Southeast  Level FlightAware Approximate
Tue 04:47:00 AM 1.5483 -74.6813 132° Southeast  Level FlightAware Approximate
Tue 04:48:00 AM 1.4583 -74.5824 132° Southeast  Level FlightAware Approximate
Tue 04:49:00 AM 1.3682 -74.4835 132° Southeast  Level FlightAware Approximate
Tue 04:50:00 AM 1.2782 -74.3846 132° Southeast  Level FlightAware Approximate
Tue 04:51:00 AM 1.1881 -74.2858 132° Southeast  Level FlightAware Approximate
Tue 04:52:00 AM 1.0980 -74.1869 132° Southeast  Level FlightAware Approximate
Tue 04:53:00 AM 1.0080 -74.0880 132° Southeast  Level FlightAware Approximate
Tue 04:54:00 AM 0.9179 -73.9892 132° Southeast  Level FlightAware Approximate
Tue 04:55:00 AM 0.8278 -73.8903 132° Southeast  Level FlightAware Approximate
Tue 04:56:00 AM 0.7377 -73.7915 132° Southeast  Level FlightAware Approximate
Tue 04:57:00 AM 0.6477 -73.6926 132° Southeast  Level FlightAware Approximate
Tue 04:58:00 AM 0.5576 -73.5938 132° Southeast  Level FlightAware Approximate
Tue 04:59:00 AM 0.4675 -73.4949 132° Southeast  Level FlightAware Approximate
Tue 05:00:00 AM 0.3774 -73.3961 132° Southeast  Level FlightAware Approximate
Tue 05:01:00 AM 0.2873 -73.2973 132° Southeast  Level FlightAware Approximate
Tue 05:02:00 AM 0.1972 -73.1984 132° Southeast  Level FlightAware Approximate
Tue 05:03:00 AM 0.1071 -73.0996 132° Southeast  Level FlightAware Approximate
Tue 05:04:00 AM 0.0170 -73.0008 132° Southeast  Level FlightAware Approximate
Tue 05:05:00 AM -0.0730 -72.9020 132° Southeast  Level FlightAware Approximate
Tue 05:06:00 AM -0.1631 -72.8031 132° Southeast  Level FlightAware Approximate
Tue 05:07:00 AM -0.2532 -72.7043 132° Southeast  Level FlightAware Approximate
Tue 05:08:00 AM -0.3433 -72.6055 132° Southeast  Level FlightAware Approximate
Tue 05:09:00 AM -0.4334 -72.5066 132° Southeast  Level FlightAware Approximate
Tue 05:10:00 AM -0.5235 -72.4078 132° Southeast  Level FlightAware Approximate
Tue 05:11:00 AM -0.6136 -72.3090 132° Southeast  Level FlightAware Approximate
Tue 05:12:00 AM -0.7037 -72.2101 132° Southeast  Level FlightAware Approximate
Tue 05:13:00 AM -0.7937 -72.1113 132° Southeast  Level FlightAware Approximate
Tue 05:14:00 AM -0.8838 -72.0124 132° Southeast  Level FlightAware Approximate
Tue 05:15:00 AM -0.9739 -71.9136 132° Southeast  Level FlightAware Approximate
Tue 05:16:00 AM -1.0640 -71.8147 132° Southeast  Level FlightAware Approximate
Tue 05:17:00 AM -1.1540 -71.7158 132° Southeast  Level FlightAware Approximate
Tue 05:18:00 AM -1.2441 -71.6170 132° Southeast  Level FlightAware Approximate
Tue 05:19:00 AM -1.3342 -71.5181 132° Southeast  Level FlightAware Approximate
Tue 05:20:00 AM -1.4242 -71.4192 132° Southeast  Level FlightAware Approximate
Tue 05:21:00 AM -1.5143 -71.3203 132° Southeast  Level FlightAware Approximate
Tue 05:22:00 AM -1.6043 -71.2214 132° Southeast  Level FlightAware Approximate
Tue 05:23:00 AM -1.6944 -71.1225 132° Southeast  Level FlightAware Approximate
Tue 05:24:00 AM -1.7844 -71.0236 132° Southeast  Level FlightAware Approximate
Tue 05:25:00 AM -1.8744 -70.9246 132° Southeast  Level FlightAware Approximate
Tue 05:26:00 AM -1.9645 -70.8257 132° Southeast  Level FlightAware Approximate
Tue 05:27:00 AM -2.0545 -70.7268 132° Southeast  Level FlightAware Approximate
Tue 05:28:00 AM -2.1445 -70.6278 132° Southeast  Level FlightAware Approximate
Tue 05:29:00 AM -2.2345 -70.5288 132° Southeast  Level FlightAware Approximate
Tue 05:30:00 AM -2.3245 -70.4298 132° Southeast  Level FlightAware Approximate
Tue 05:31:00 AM -2.4145 -70.3308 132° Southeast  Level FlightAware Approximate
Tue 05:32:00 AM -2.5045 -70.2318 132° Southeast  Level FlightAware Approximate
Tue 05:33:00 AM -2.5945 -70.1328 132° Southeast  Level FlightAware Approximate
Tue 05:34:00 AM -2.6845 -70.0338 132° Southeast  Level FlightAware Approximate
Tue 05:35:00 AM -2.7772 -69.9373 134° Southeast  Level FlightAware Approximate
Tue 05:36:00 AM -2.8706 -69.8414 134° Southeast  Level FlightAware Approximate
Tue 05:37:00 AM -2.9639 -69.7455 134° Southeast  Level FlightAware Approximate
Tue 05:38:00 AM -3.0572 -69.6496 134° Southeast  Level FlightAware Approximate
Tue 05:39:00 AM -3.1505 -69.5537 134° Southeast  Level FlightAware Approximate
Tue 05:40:00 AM -3.2438 -69.4577 134° Southeast  Level FlightAware Approximate
Tue 05:41:00 AM -3.3371 -69.3617 134° Southeast  Level FlightAware Approximate
Tue 05:42:00 AM -3.4304 -69.2657 134° Southeast  Level FlightAware Approximate
Tue 05:43:00 AM -3.5236 -69.1697 134° Southeast  Level FlightAware Approximate
Tue 05:44:00 AM -3.6169 -69.0737 134° Southeast  Level FlightAware Approximate
Tue 05:45:00 AM -3.7102 -68.9777 134° Southeast  Level FlightAware Approximate
Tue 05:46:00 AM -3.8034 -68.8816 134° Southeast  Level FlightAware Approximate
Tue 05:47:00 AM -3.8966 -68.7855 134° Southeast  Level FlightAware Approximate
Tue 05:48:00 AM -3.9899 -68.6894 134° Southeast  Level FlightAware Approximate
Tue 05:49:00 AM -4.0831 -68.5932 134° Southeast  Level FlightAware Approximate
Tue 05:50:00 AM -4.1762 -68.4971 134° Southeast  Level FlightAware Approximate
Tue 05:51:00 AM -4.2694 -68.4009 134° Southeast  Level FlightAware Approximate
Tue 05:52:00 AM -4.3626 -68.3047 134° Southeast  Level FlightAware Approximate
Tue 05:53:00 AM -4.4558 -68.2085 134° Southeast  Level FlightAware Approximate
Tue 05:54:00 AM -4.5489 -68.1122 134° Southeast  Level FlightAware Approximate
Tue 05:55:00 AM -4.6420 -68.0160 134° Southeast  Level FlightAware Approximate
Tue 05:56:00 AM -4.7352 -67.9196 134° Southeast  Level FlightAware Approximate
Tue 05:57:00 AM -4.8283 -67.8233 134° Southeast  Level FlightAware Approximate
Tue 05:58:00 AM -4.9214 -67.7270 134° Southeast  Level FlightAware Approximate
Tue 05:59:00 AM -5.0144 -67.6306 134° Southeast  Level FlightAware Approximate
Tue 06:00:00 AM -5.1075 -67.5342 134° Southeast  Level FlightAware Approximate
Tue 06:01:00 AM -5.2006 -67.4377 134° Southeast  Level FlightAware Approximate
Tue 06:02:00 AM -5.2936 -67.3413 134° Southeast  Level FlightAware Approximate
Tue 06:03:00 AM -5.3866 -67.2448 134° Southeast  Level FlightAware Approximate
Tue 06:04:00 AM -5.4796 -67.1483 134° Southeast  Level FlightAware Approximate
Tue 06:05:00 AM -5.5726 -67.0517 134° Southeast  Level FlightAware Approximate
Tue 06:06:00 AM -5.6656 -66.9551 134° Southeast  Level FlightAware Approximate
Tue 06:07:00 AM -5.7585 -66.8585 134° Southeast  Level FlightAware Approximate
Tue 06:08:00 AM -5.8515 -66.7619 134° Southeast  Level FlightAware Approximate
Tue 06:09:00 AM -5.9444 -66.6652 134° Southeast  Level FlightAware Approximate
Tue 06:10:00 AM -6.0373 -66.5685 134° Southeast  Level FlightAware Approximate
Tue 06:11:00 AM -6.1302 -66.4717 134° Southeast  Level FlightAware Approximate
Tue 06:12:00 AM -6.2231 -66.3749 134° Southeast  Level FlightAware Approximate
Tue 06:13:00 AM -6.3159 -66.2781 134° Southeast  Level FlightAware Approximate
Tue 06:14:00 AM -6.4088 -66.1813 134° Southeast  Level FlightAware Approximate
Tue 06:15:00 AM -6.5016 -66.0844 134° Southeast  Level FlightAware Approximate
Tue 06:16:00 AM -6.5944 -65.9875 134° Southeast  Level FlightAware Approximate
Tue 06:17:00 AM -6.6872 -65.8905 134° Southeast  Level FlightAware Approximate
Tue 06:18:00 AM -6.7799 -65.7935 134° Southeast  Level FlightAware Approximate
Tue 06:19:00 AM -6.8727 -65.6965 134° Southeast  Level FlightAware Approximate
Tue 06:20:00 AM -6.9654 -65.5994 134° Southeast  Level FlightAware Approximate
Tue 06:21:00 AM -7.0581 -65.5023 134° Southeast  Level FlightAware Approximate
Tue 06:22:00 AM -7.1508 -65.4052 134° Southeast  Level FlightAware Approximate
Tue 06:23:00 AM -7.2435 -65.3080 134° Southeast  Level FlightAware Approximate
Tue 06:24:00 AM -7.3361 -65.2108 134° Southeast  Level FlightAware Approximate
Tue 06:25:00 AM -7.4288 -65.1135 134° Southeast  Level FlightAware Approximate
Tue 06:26:00 AM -7.5213 -65.0162 134° Southeast  Level FlightAware Approximate
Tue 06:27:00 AM -7.6139 -64.9189 134° Southeast  Level FlightAware Approximate
Tue 06:28:00 AM -7.7065 -64.8215 134° Southeast  Level FlightAware Approximate
Tue 06:29:00 AM -7.7990 -64.7240 134° Southeast  Level FlightAware Approximate
Tue 06:30:00 AM -7.8916 -64.6266 134° Southeast  Level FlightAware Approximate
Tue 06:31:00 AM -7.9840 -64.5291 134° Southeast  Level FlightAware Approximate
Tue 06:32:00 AM -8.0765 -64.4315 134° Southeast  Level FlightAware Approximate
Tue 06:33:00 AM -8.1690 -64.3339 134° Southeast  Level FlightAware Approximate
Tue 06:34:00 AM -8.2614 -64.2362 134° Southeast  Level FlightAware Approximate
Tue 06:35:00 AM -8.3538 -64.1385 134° Southeast  Level FlightAware Approximate
Tue 06:36:00 AM -8.4462 -64.0408 134° Southeast  Level FlightAware Approximate
Tue 06:37:00 AM -8.5385 -63.9430 134° Southeast  Level FlightAware Approximate
Tue 06:38:00 AM -8.6308 -63.8452 134° Southeast  Level FlightAware Approximate
Tue 06:39:00 AM -8.7231 -63.7473 134° Southeast  Level FlightAware Approximate
Tue 06:40:00 AM -8.8154 -63.6493 134° Southeast  Level FlightAware Approximate
Tue 06:41:00 AM -8.9077 -63.5514 134° Southeast  Level FlightAware Approximate
Tue 06:42:00 AM -8.9999 -63.4533 134° Southeast  Level FlightAware Approximate
Tue 06:43:00 AM -9.0921 -63.3553 134° Southeast  Level FlightAware Approximate
Tue 06:44:00 AM -9.1843 -63.2571 134° Southeast  Level FlightAware Approximate
Tue 06:45:00 AM -9.2764 -63.1589 134° Southeast  Level FlightAware Approximate
Tue 06:46:00 AM -9.3685 -63.0607 134° Southeast  Level FlightAware Approximate
Tue 06:47:00 AM -9.4606 -62.9624 134° Southeast  Level FlightAware Approximate
Tue 06:48:00 AM -9.5527 -62.8641 134° Southeast  Level FlightAware Approximate
Tue 06:49:00 AM -9.6447 -62.7657 133° Southeast  Level FlightAware Approximate
Tue 06:50:00 AM -9.7367 -62.6672 133° Southeast  Level FlightAware Approximate
Tue 06:51:00 AM -9.8287 -62.5687 133° Southeast  Level FlightAware Approximate
Tue 06:52:00 AM -9.9207 -62.4702 133° Southeast  Level FlightAware Approximate
Tue 06:53:00 AM -10.0126 -62.3716 133° Southeast  Level FlightAware Approximate
Tue 06:54:00 AM -10.1045 -62.2729 133° Southeast  Level FlightAware Approximate
Tue 06:55:00 AM -10.1964 -62.1742 133° Southeast  Level FlightAware Approximate
Tue 06:56:00 AM -10.2882 -62.0754 133° Southeast  Level FlightAware Approximate
Tue 06:57:00 AM -10.3800 -61.9766 133° Southeast  Level FlightAware Approximate
Tue 06:58:00 AM -10.4718 -61.8777 133° Southeast  Level FlightAware Approximate
Tue 06:59:00 AM -10.5636 -61.7787 133° Southeast  Level FlightAware Approximate
Tue 07:00:00 AM -10.6553 -61.6797 133° Southeast  Level FlightAware Approximate
Tue 07:01:00 AM -10.7470 -61.5806 133° Southeast  Level FlightAware Approximate
Tue 07:02:00 AM -10.8386 -61.4815 133° Southeast  Level FlightAware Approximate
Tue 07:03:00 AM -10.9302 -61.3823 133° Southeast  Level FlightAware Approximate
Tue 07:04:00 AM -11.0218 -61.2830 133° Southeast  Level FlightAware Approximate
Tue 07:05:00 AM -11.1134 -61.1837 133° Southeast  Level FlightAware Approximate
Tue 07:06:00 AM -11.2049 -61.0843 133° Southeast  Level FlightAware Approximate
Tue 07:07:00 AM -11.2964 -60.9849 133° Southeast  Level FlightAware Approximate
Tue 07:08:00 AM -11.3878 -60.8854 133° Southeast  Level FlightAware Approximate
Tue 07:09:00 AM -11.4793 -60.7858 133° Southeast  Level FlightAware Approximate
Tue 07:10:00 AM -11.5707 -60.6861 133° Southeast  Level FlightAware Approximate
Tue 07:11:00 AM -11.6620 -60.5864 133° Southeast  Level FlightAware Approximate
Tue 07:12:00 AM -11.7533 -60.4867 133° Southeast  Level FlightAware Approximate
Tue 07:13:00 AM -11.8446 -60.3868 133° Southeast  Level FlightAware Approximate
Tue 07:14:00 AM -11.9359 -60.2869 133° Southeast  Level FlightAware Approximate
Tue 07:15:00 AM -12.0271 -60.1870 133° Southeast  Level FlightAware Approximate
Tue 07:16:00 AM -12.1183 -60.0869 133° Southeast  Level FlightAware Approximate
Tue 07:17:00 AM -12.2094 -59.9869 133° Southeast  Level FlightAware Approximate
Tue 07:18:00 AM -12.3005 -59.8867 133° Southeast  Level FlightAware Approximate
Tue 07:19:00 AM -12.3916 -59.7864 133° Southeast  Level FlightAware Approximate
Tue 07:20:00 AM -12.4826 -59.6861 133° Southeast  Level FlightAware Approximate
Tue 07:21:00 AM -12.5737 -59.5858 133° Southeast  Level FlightAware Approximate
Tue 07:22:00 AM -12.6646 -59.4853 133° Southeast  Level FlightAware Approximate
Tue 07:23:00 AM -12.7555 -59.3848 133° Southeast  Level FlightAware Approximate
Tue 07:24:00 AM -12.8464 -59.2842 133° Southeast  Level FlightAware Approximate
Tue 07:25:00 AM -12.9373 -59.1835 133° Southeast  Level FlightAware Approximate
Tue 07:26:00 AM -13.0281 -59.0828 133° Southeast  Level FlightAware Approximate
Tue 07:27:00 AM -13.1188 -58.9819 133° Southeast  Level FlightAware Approximate
Tue 07:28:00 AM -13.2096 -58.8811 133° Southeast  Level FlightAware Approximate
Tue 07:29:00 AM -13.3003 -58.7801 133° Southeast  Level FlightAware Approximate
Tue 07:30:00 AM -13.3909 -58.6791 133° Southeast  Level FlightAware Approximate
Tue 07:31:00 AM -13.4815 -58.5779 133° Southeast  Level FlightAware Approximate
Tue 07:32:00 AM -13.5721 -58.4767 133° Southeast  Level FlightAware Approximate
Tue 07:33:00 AM -13.6626 -58.3755 133° Southeast  Level FlightAware Approximate
Tue 07:34:00 AM -13.7531 -58.2741 133° Southeast  Level FlightAware Approximate
Tue 07:35:00 AM -13.8436 -58.1727 133° Southeast  Level FlightAware Approximate
Tue 07:36:00 AM -13.9340 -58.0712 133° Southeast  Level FlightAware Approximate
Tue 07:37:00 AM -14.0243 -57.9696 133° Southeast  Level FlightAware Approximate
Tue 07:38:00 AM -14.1147 -57.8679 132° Southeast  Level FlightAware Approximate
Tue 07:39:00 AM -14.2049 -57.7662 132° Southeast  Level FlightAware Approximate
Tue 07:40:00 AM -14.2952 -57.6643 132° Southeast  Level FlightAware Approximate
Tue 07:41:00 AM -14.3854 -57.5624 132° Southeast  Level FlightAware Approximate
Tue 07:42:00 AM -14.4755 -57.4604 132° Southeast  Level FlightAware Approximate
Tue 07:43:00 AM -14.5656 -57.3583 132° Southeast  Level FlightAware Approximate
Tue 07:44:00 AM -14.6557 -57.2562 132° Southeast  Level FlightAware Approximate
Tue 07:45:00 AM -14.7457 -57.1539 132° Southeast  Level FlightAware Approximate
Tue 07:46:00 AM -14.8357 -57.0516 132° Southeast  Level FlightAware Approximate
Tue 07:47:00 AM -14.9256 -56.9492 132° Southeast  Level FlightAware Approximate
Tue 07:48:00 AM -15.0155 -56.8467 132° Southeast  Level FlightAware Approximate
Tue 07:49:00 AM -15.1053 -56.7441 132° Southeast  Level FlightAware Approximate
Tue 07:50:00 AM -15.1951 -56.6415 132° Southeast  Level FlightAware Approximate
Tue 07:51:00 AM -15.2849 -56.5387 132° Southeast  Level FlightAware Approximate
Tue 07:52:00 AM -15.3745 -56.4358 132° Southeast  Level FlightAware Approximate
Tue 07:53:00 AM -15.4642 -56.3329 132° Southeast  Level FlightAware Approximate
Tue 07:54:00 AM -15.5538 -56.2299 132° Southeast  Level FlightAware Approximate
Tue 07:55:00 AM -15.6433 -56.1268 132° Southeast  Level FlightAware Approximate
Tue 07:56:00 AM -15.7328 -56.0236 132° Southeast  Level FlightAware Approximate
Tue 07:57:00 AM -15.8223 -55.9203 132° Southeast  Level FlightAware Approximate
Tue 07:58:00 AM -15.9117 -55.8169 132° Southeast  Level FlightAware Approximate
Tue 07:59:00 AM -16.0011 -55.7134 132° Southeast  Level FlightAware Approximate
Tue 08:00:00 AM -16.0904 -55.6098 132° Southeast  Level FlightAware Approximate
Tue 08:01:00 AM -16.1796 -55.5062 132° Southeast  Level FlightAware Approximate
Tue 08:02:00 AM -16.2689 -55.4024 132° Southeast  Level FlightAware Approximate
Tue 08:03:00 AM -16.3580 -55.2986 132° Southeast  Level FlightAware Approximate
Tue 08:04:00 AM -16.4471 -55.1946 132° Southeast  Level FlightAware Approximate
Tue 08:05:00 AM -16.5362 -55.0906 132° Southeast  Level FlightAware Approximate
Tue 08:06:00 AM -16.6252 -54.9864 132° Southeast  Level FlightAware Approximate
Tue 08:07:00 AM -16.7141 -54.8822 132° Southeast  Level FlightAware Approximate
Tue 08:08:00 AM -16.8030 -54.7779 132° Southeast  Level FlightAware Approximate
Tue 08:09:00 AM -16.8919 -54.6734 132° Southeast  Level FlightAware Approximate
Tue 08:10:00 AM -16.9807 -54.5689 132° Southeast  Level FlightAware Approximate
Tue 08:11:00 AM -17.0694 -54.4643 132° Southeast  Level FlightAware Approximate
Tue 08:12:00 AM -17.1581 -54.3596 132° Southeast  Level FlightAware Approximate
Tue 08:13:00 AM -17.2467 -54.2547 132° Southeast  Level FlightAware Approximate
Tue 08:14:00 AM -17.3353 -54.1498 131° Southeast  Level FlightAware Approximate
Tue 08:15:00 AM -17.4238 -54.0448 131° Southeast  Level FlightAware Approximate
Tue 08:16:00 AM -17.5123 -53.9396 131° Southeast  Level FlightAware Approximate
Tue 08:17:00 AM -17.6007 -53.8344 131° Southeast  Level FlightAware Approximate
Tue 08:18:00 AM -17.6891 -53.7291 131° Southeast  Level FlightAware Approximate
Tue 08:19:00 AM -17.7774 -53.6236 131° Southeast  Level FlightAware Approximate
Tue 08:20:00 AM -17.8656 -53.5181 131° Southeast  Level FlightAware Approximate
Tue 08:21:00 AM -17.9538 -53.4124 131° Southeast  Level FlightAware Approximate
Tue 08:22:00 AM -18.0419 -53.3067 131° Southeast  Level FlightAware Approximate
Tue 08:23:00 AM -18.1300 -53.2008 131° Southeast  Level FlightAware Approximate
Tue 08:24:00 AM -18.2180 -53.0948 131° Southeast  Level FlightAware Approximate
Tue 08:25:00 AM -18.3060 -52.9888 131° Southeast  Level FlightAware Approximate
Tue 08:26:00 AM -18.3939 -52.8826 131° Southeast  Level FlightAware Approximate
Tue 08:27:00 AM -18.4817 -52.7763 131° Southeast  Level FlightAware Approximate
Tue 08:28:00 AM -18.5695 -52.6699 131° Southeast  Level FlightAware Approximate
Tue 08:29:00 AM -18.6572 -52.5634 131° Southeast  Level FlightAware Approximate
Tue 08:30:00 AM -18.7449 -52.4568 131° Southeast  Level FlightAware Approximate
Tue 08:31:00 AM -18.8325 -52.3500 131° Southeast  Level FlightAware Approximate
Tue 08:32:00 AM -18.9200 -52.2432 131° Southeast  Level FlightAware Approximate
Tue 08:33:00 AM -19.0075 -52.1362 131° Southeast  Level FlightAware Approximate
Tue 08:34:00 AM -19.0949 -52.0292 131° Southeast  Level FlightAware Approximate
Tue 08:35:00 AM -19.1822 -51.9220 131° Southeast  Level FlightAware Approximate
Tue 08:36:00 AM -19.2695 -51.8147 131° Southeast  Level FlightAware Approximate
Tue 08:37:00 AM -19.3568 -51.7073 131° Southeast  Level FlightAware Approximate
Tue 08:38:00 AM -19.4439 -51.5998 131° Southeast  Level FlightAware Approximate
Tue 08:39:00 AM -19.5310 -51.4921 131° Southeast  Level FlightAware Approximate
Tue 08:40:00 AM -19.6181 -51.3844 131° Southeast  Level FlightAware Approximate
Tue 08:41:00 AM -19.7050 -51.2765 131° Southeast  Level FlightAware Approximate
Tue 08:42:00 AM -19.7920 -51.1685 131° Southeast  Level FlightAware Approximate
Tue 08:43:00 AM -19.8789 -51.0603 131° Southeast  Level FlightAware Approximate
Tue 08:44:00 AM -19.9657 -50.9520 130° Southeast  Level FlightAware Approximate
Tue 08:45:00 AM -20.0525 -50.8436 130° Southeast  Level FlightAware Approximate
Tue 08:46:00 AM -20.1392 -50.7351 130° Southeast  Level FlightAware Approximate
Tue 08:47:00 AM -20.2258 -50.6264 130° Southeast  Level FlightAware Approximate
Tue 08:48:00 AM -20.3124 -50.5177 130° Southeast  Level FlightAware Approximate
Tue 08:49:00 AM -20.3989 -50.4087 130° Southeast  Level FlightAware Approximate
Tue 08:50:00 AM -20.4854 -50.2997 130° Southeast  Level FlightAware Approximate
Tue 08:51:00 AM -20.5717 -50.1906 130° Southeast  Level FlightAware Approximate
Tue 08:52:00 AM -20.6581 -50.0813 130° Southeast  Level FlightAware Approximate
Tue 08:53:00 AM -20.7443 -49.9719 130° Southeast  Level FlightAware Approximate
Tue 08:54:00 AM -20.8305 -49.8624 130° Southeast  Level FlightAware Approximate
Tue 08:55:00 AM -20.9166 -49.7527 130° Southeast  Level FlightAware Approximate
Tue 08:56:00 AM -21.0026 -49.6429 130° Southeast  Level FlightAware Approximate
Tue 08:57:00 AM -21.0886 -49.5330 130° Southeast  Level FlightAware Approximate
Tue 08:58:00 AM -21.1744 -49.4230 130° Southeast  Level FlightAware Approximate
Tue 08:59:00 AM -21.2603 -49.3129 130° Southeast  Level FlightAware Approximate
Tue 09:00:00 AM -21.3460 -49.2026 130° Southeast  Level FlightAware Approximate
Tue 09:01:00 AM -21.4317 -49.0922 130° Southeast  Level FlightAware Approximate
Tue 09:02:00 AM -21.5173 -48.9816 130° Southeast  Level FlightAware Approximate
Tue 09:03:00 AM -21.6028 -48.8709 130° Southeast  Level FlightAware Approximate
Tue 09:04:00 AM -21.6882 -48.7601 130° Southeast  Level FlightAware Approximate
Tue 09:05:00 AM -21.7736 -48.6492 130° Southeast  Level FlightAware Approximate
Tue 09:06:00 AM -21.8589 -48.5381 130° Southeast  Level FlightAware Approximate
Tue 09:07:00 AM -21.9442 -48.4269 130° Southeast  Level FlightAware Approximate
Tue 09:08:00 AM -22.0293 -48.3156 130° Southeast  Level FlightAware Approximate
Tue 09:09:00 AM -22.1169 -48.2064 132° Southeast  Level FlightAware Approximate
Tue 09:10:00 AM -22.2028 -48.0957 126° Southeast  Level FlightAware Approximate
Tue 09:11:00 AM -22.2838 -47.9807 128° Southeast  Level FlightAware Approximate
Tue 09:12:00 AM -22.3665 -47.8669 128° Southeast  Level FlightAware Approximate
Tue 09:13:00 AM -22.4497 -47.7536 128° Southeast  Level FlightAware Approximate
Tue 09:14:00 AM -22.5329 -47.6401 128° Southeast  Level FlightAware Approximate
Tue 09:15:00 AM -22.6181 -47.5283 130° Southeast  Level FlightAware Approximate
Tue 09:16:00 AM -22.7037 -47.4169 130° Southeast  Level FlightAware Approximate
Tue 09:17:00 AM -22.7884 -47.3045 129° Southeast  Level FlightAware Approximate
Tue 09:18:00 AM -22.8729 -47.1919 129° Southeast  Level FlightAware Approximate
Tue 09:19:00 AM -22.9610 -47.0827 134° Southeast  Level FlightAware Approximate
Tue 09:20:00 AM -23.0512 -46.9754 128° Southeast  Level FlightAware Approximate
Tue 09:21:00 AM -23.1342 -46.8613 128° Southeast  Level FlightAware Approximate
Tue 09:22:00 AM -23.2052 -46.7404 132° Southeast  Level FlightAware Approximate
Tue 09:23:00 AM -23.2935 -46.6310 129° Southeast  Level FlightAware Approximate

Login

Don't have an account? Register now (free) for customized features, flight alerts, and more!